Terminal Aerodrome Forecast
Issued by NWS North Platte, NE

Home | Current Version | Previous Version | Graphics & Text | Print | Product List | Glossary On
Versions: 1 2 3 4 5 6 7 8 9 10 11 12 13 14 15 16 17 18 19
483
FTUS43 KLBF 221120
TAFVTN
TAF
KVTN 221120Z 2212/2312 18005KT P6SM SCT080 OVC150
     FM221600 16007KT P6SM OVC025
     FM221800 16008KT 1 1/2SM -SN OVC015
     FM230000 16005KT P6SM OVC008=

USA.gov is the U.S. government's official web portal to all federal, state and local government web resources and services.